»·PEaware :: N575CB KLAX-KSNA

N575CB :: KLAX-KSNA

FLIGHT INFORMATION

Flight Status: Arrived
Operator: Privately registered:
United States
More flights under this callsign
Pilot: Sjoerd Jan T. (24821)
Aircraft: CESSNA 172 SKYHAWK
(C172)
More flights by this aircraft type
Origin: KLAX Los Angeles Intl
United States
Destination: KSNA John Wayne-Orange Co
United States
More flights between these airports :: More routes between these airports
Route: SLI8 SLI
File this flight plan on PilotEdge
Remarks: TEC route LAXP55
Altitude:
(Current/Filed)
4,000ft
Speed:
(Current/Filed)
110kts
Departed: 14-Jan-21 08:23 AM
Arrived: 14-Jan-21 09:04 AM
Distance/Time
Traveled:
31nm/0:41
Distance/Time
To Go:
Arrived

Flight Plot

Page will automatically refresh every two minutes.

Flight plan parsing failed; only flown route is shown


Map Options




Map Legend


Flown Route
Filed Route
Departure Airport
Arrival Airport
Navaid (VOR, NDB)
Fix

Horizontal Profiles

Position Reports

Time Latitude Longitude Heading Altitude Ground
Speed
14-Jan-21 08:06 33.933633 -118.399567 171 116ft 0kts
14-Jan-21 08:07 33.933633 -118.399567 171 116ft 0kts
14-Jan-21 08:08 33.933633 -118.399567 171 116ft 0kts
14-Jan-21 08:09 33.933633 -118.399567 171 116ft 0kts
14-Jan-21 08:10 33.933633 -118.399567 171 116ft 0kts
14-Jan-21 08:11 33.933633 -118.399567 171 116ft 0kts
14-Jan-21 08:12 33.933633 -118.399567 171 116ft 0kts
14-Jan-21 08:13 33.933633 -118.399567 171 116ft 0kts
14-Jan-21 08:14 33.933633 -118.399567 171 116ft 0kts
14-Jan-21 08:15 33.933633 -118.399567 171 116ft 0kts
14-Jan-21 08:16 33.933870 -118.399252 61 115ft 6kts
14-Jan-21 08:17 33.934843 -118.395144 82 108ft 21kts
14-Jan-21 08:18 33.935545 -118.388400 84 103ft 21kts
14-Jan-21 08:19 33.936387 -118.382799 19 100ft 9kts
14-Jan-21 08:20 33.936419 -118.382787 16 100ft 0kts
14-Jan-21 08:21 33.936419 -118.382787 17 100ft 0kts
14-Jan-21 08:22 33.936389 -118.392279 263 151ft 84kts
14-Jan-21 08:23 33.933624 -118.420907 261 841ft 91kts
14-Jan-21 08:24 33.925911 -118.448256 212 1548ft 88kts
14-Jan-21 08:25 33.905089 -118.465125 211 2164ft 91kts
14-Jan-21 08:26 33.882477 -118.473776 152 2755ft 93kts
14-Jan-21 08:27 33.859927 -118.459877 150 3309ft 93kts
14-Jan-21 08:29 33.839195 -118.446999 150 3767ft 96kts
14-Jan-21 08:30 33.818607 -118.428970 93 3795ft 84kts
14-Jan-21 08:31 33.817015 -118.398915 94 3790ft 94kts
14-Jan-21 08:32 33.814045 -118.366501 95 3789ft 99kts
14-Jan-21 08:33 33.810684 -118.331108 95 3790ft 115kts
14-Jan-21 08:34 33.806952 -118.293221 95 3788ft 113kts
14-Jan-21 08:35 33.803346 -118.256159 95 3788ft 111kts
14-Jan-21 08:36 33.800126 -118.222685 95 4001ft 106kts
14-Jan-21 08:37 33.796513 -118.185835 95 4001ft 117kts
14-Jan-21 08:38 33.792538 -118.145604 95 3999ft 122kts
14-Jan-21 08:39 33.788549 -118.105215 95 3999ft 122kts
14-Jan-21 08:40 33.784533 -118.064578 95 3999ft 122kts
14-Jan-21 08:41 33.795162 -118.026372 63 3999ft 122kts
14-Jan-21 08:42 33.809888 -117.989461 62 3999ft 122kts
14-Jan-21 08:42 33.822222 -117.958791 62 3999ft 122kts
14-Jan-21 08:44 33.839467 -117.915873 62 3999ft 122kts
14-Jan-21 08:45 33.854211 -117.879137 62 3999ft 122kts
14-Jan-21 08:46 33.868980 -117.842301 62 3999ft 122kts
14-Jan-21 08:47 33.883747 -117.805426 62 3999ft 122kts
14-Jan-21 08:47 33.894650 -117.777987 63 3996ft 107kts
14-Jan-21 08:49 33.908771 -117.742775 62 4001ft 100kts
14-Jan-21 08:49 33.919503 -117.716432 53 4000ft 107kts
14-Jan-21 08:50 33.945132 -117.698134 26 3999ft 107kts
14-Jan-21 08:51 33.961639 -117.714964 232 3533ft 128kts
14-Jan-21 08:52 33.930916 -117.713269 160 3498ft 111kts
14-Jan-21 08:53 33.903189 -117.722207 209 3500ft 107kts
14-Jan-21 08:54 33.877198 -117.739912 207 3499ft 107kts
14-Jan-21 08:55 33.850965 -117.756918 206 3499ft 107kts
14-Jan-21 08:56 33.825797 -117.773089 206 3297ft 96kts
14-Jan-21 08:57 33.801912 -117.788340 206 2772ft 98kts
14-Jan-21 08:58 33.777730 -117.803784 206 2230ft 99kts
14-Jan-21 08:59 33.753406 -117.819296 206 1684ft 99kts
14-Jan-21 09:00 33.728965 -117.834877 206 1140ft 99kts
14-Jan-21 09:01 33.704991 -117.850191 206 607ft 91kts
14-Jan-21 09:02 33.684010 -117.863489 207 142ft 81kts
14-Jan-21 09:03 33.674774 -117.868604 163 60ft 10kts
14-Jan-21 09:04 33.673885 -117.867559 113 60ft 0kts
14-Jan-21 09:05 33.671702 -117.868391 211 60ft 16kts
14-Jan-21 09:06 33.667825 -117.872251 211 60ft 8kts
14-Jan-21 09:07 33.668237 -117.871024 159 60ft 4kts

Navigation Log

Ident Type
Flight plan parsing failed, navigation log unavailable